createdAt,value
2019-05-12T00:01:18.802Z,4.83
2019-05-12T00:03:53.341Z,5.10
2019-05-12T00:06:28.422Z,5.10
2019-05-12T00:09:02.734Z,4.80
2019-05-12T00:11:37.885Z,5.45
2019-05-12T00:14:12.054Z,5.00
2019-05-12T00:16:46.056Z,5.08
2019-05-12T00:19:19.857Z,4.65
2019-05-12T00:21:53.849Z,5.25
2019-05-12T00:24:28.057Z,5.17
2019-05-12T00:27:04.948Z,4.85
2019-05-12T00:29:38.829Z,5.03
2019-05-12T00:32:13.131Z,4.75
2019-05-12T00:34:48.058Z,4.62
2019-05-12T00:37:22.949Z,4.37
2019-05-12T00:39:59.275Z,4.72
2019-05-12T00:42:33.811Z,4.20
2019-05-12T00:45:08.714Z,5.03
2019-05-12T00:47:43.828Z,4.75
2019-05-12T00:50:20.657Z,4.72
2019-05-12T00:52:57.999Z,4.78
2019-05-12T00:55:38.871Z,4.83
2019-05-12T00:58:31.676Z,4.90
2019-05-12T01:01:25.510Z,4.70
2019-05-12T01:04:12.649Z,4.97
2019-05-12T01:07:05.683Z,4.62
2019-05-12T01:10:13.397Z,4.45
2019-05-12T01:18:18.175Z,4.22
2019-05-12T01:21:03.495Z,5.25
2019-05-12T01:24:38.381Z,5.30
2019-05-12T01:28:48.758Z,4.60
2019-05-12T01:39:33.536Z,4.17
2019-05-12T01:43:08.841Z,3.83
2019-05-12T01:46:28.778Z,3.92
2019-05-12T01:50:28.469Z,3.62
2019-05-12T01:53:14.021Z,3.30
2019-05-12T01:55:54.983Z,3.58
2019-05-12T01:58:39.519Z,4.05
2019-05-12T02:02:31.228Z,3.62
2019-05-12T02:06:15.054Z,3.62
2019-05-12T02:12:14.187Z,3.55
2019-05-12T02:14:53.564Z,3.85
2019-05-12T02:17:28.308Z,4.15
2019-05-12T02:20:03.332Z,3.67
2019-05-12T02:22:38.913Z,3.92
2019-05-12T02:25:13.001Z,3.52
2019-05-12T02:59:06.651Z,3.52
2019-05-12T03:09:30.172Z,3.95
2019-05-12T03:12:44.710Z,4.12
2019-05-12T03:23:39.384Z,3.60
2019-05-12T03:26:24.623Z,6.35
2019-05-12T03:29:05.703Z,6.62
2019-05-12T03:31:48.623Z,5.58
2019-05-12T04:30:08.477Z,20.68
2019-05-12T04:32:45.218Z,12.03
2019-05-12T04:35:19.315Z,8.95
2019-05-12T04:37:55.350Z,5.75
2019-05-12T04:40:49.228Z,5.87
2019-05-12T04:47:45.999Z,4.25
2019-05-12T04:50:24.541Z,3.52
2019-05-12T04:53:18.825Z,4.97
2019-05-12T04:56:07.433Z,4.83
2019-05-12T04:58:34.874Z,3.70
2019-05-12T05:01:17.892Z,4.08
2019-05-12T05:03:56.608Z,3.70
2019-05-12T05:06:35.723Z,5.17
2019-05-12T05:09:14.418Z,4.10
2019-05-12T05:11:48.338Z,3.08
2019-05-12T05:14:24.910Z,3.60
2019-05-12T05:17:00.999Z,3.60
2019-05-12T05:19:36.403Z,3.30
2019-05-12T05:22:47.581Z,3.85
2019-05-12T05:26:04.395Z,3.75
2019-05-12T05:38:51.059Z,4.53
2019-05-12T05:41:29.449Z,4.17
2019-05-12T06:32:11.273Z,2.83
2019-05-12T06:34:46.087Z,3.58
2019-05-12T06:37:57.352Z,3.00
2019-05-12T06:40:46.316Z,3.65
2019-05-12T06:43:33.598Z,3.52
2019-05-12T06:46:11.793Z,3.83
2019-05-12T06:49:10.258Z,4.37
2019-05-12T06:52:00.774Z,12.60
2019-05-12T06:54:34.455Z,6.47
2019-05-12T06:57:22.109Z,4.67
2019-05-12T07:00:08.766Z,5.03
2019-05-12T07:02:55.128Z,6.20
2019-05-12T07:05:50.386Z,7.33
2019-05-12T07:08:32.806Z,26.30
2019-05-12T07:11:07.700Z,11.30
2019-05-12T07:13:46.648Z,23.15
2019-05-12T07:16:29.515Z,6.85
2019-05-12T07:19:29.701Z,5.65
2019-05-12T07:50:58.442Z,6.20
2019-05-12T07:53:30.195Z,4.20
2019-05-12T07:56:07.190Z,8.78
2019-05-12T07:58:47.458Z,6.87
2019-05-12T08:01:18.418Z,10.45
2019-05-12T08:03:57.337Z,8.08
2019-05-12T08:06:34.615Z,9.23
2019-05-12T08:09:13.450Z,8.38
2019-05-12T08:12:19.066Z,6.00
2019-05-12T08:15:15.839Z,5.53
2019-05-12T08:17:59.679Z,4.67
2019-05-12T08:21:07.300Z,4.30
2019-05-12T08:23:48.619Z,3.30
2019-05-12T08:40:10.203Z,5.08
2019-05-12T08:54:11.029Z,5.50
2019-05-12T09:13:43.225Z,4.03
2019-05-12T09:46:03.799Z,8.65
2019-05-12T09:55:17.892Z,4.78
2019-05-12T10:07:19.465Z,7.53
2019-05-12T10:09:55.132Z,5.67
2019-05-12T10:12:36.601Z,5.12
2019-05-12T10:15:06.889Z,4.85
2019-05-12T10:17:40.543Z,6.10
2019-05-12T10:20:15.204Z,5.78
2019-05-12T10:22:49.761Z,6.67
2019-05-12T10:25:28.504Z,5.75
2019-05-12T10:28:02.991Z,6.12
2019-05-12T10:30:34.405Z,4.65
2019-05-12T10:33:07.940Z,4.65
2019-05-12T10:35:43.667Z,4.25
2019-05-12T10:38:16.407Z,5.20
2019-05-12T10:40:51.122Z,4.28
2019-05-12T10:43:24.936Z,5.28
2019-05-12T10:46:07.215Z,4.72
2019-05-12T10:51:53.981Z,4.78
2019-05-12T10:54:28.696Z,5.85
2019-05-12T10:57:05.053Z,4.37
2019-05-12T10:59:43.397Z,3.98
2019-05-12T11:02:14.003Z,3.50
2019-05-12T11:04:49.067Z,3.20
2019-05-12T11:07:28.005Z,2.70
2019-05-12T11:10:05.594Z,3.20
2019-05-12T11:12:36.388Z,2.87
2019-05-12T11:27:34.399Z,4.15
2019-05-12T11:45:44.202Z,3.30
2019-05-12T11:48:46.323Z,2.70
2019-05-12T11:58:33.508Z,2.90
2019-05-12T12:01:17.879Z,3.35
2019-05-12T12:03:54.502Z,9.13
2019-05-12T12:06:33.166Z,9.85
2019-05-12T12:09:15.494Z,3.92
2019-05-12T12:11:45.189Z,4.75
2019-05-12T12:14:20.045Z,11.38
2019-05-12T12:16:54.459Z,4.47
2019-05-12T12:19:37.830Z,3.55
2019-05-12T12:22:05.228Z,2.75
2019-05-12T12:36:04.253Z,4.37
2019-05-12T12:38:38.266Z,4.60
2019-05-12T12:41:13.186Z,3.77
2019-05-12T12:43:47.137Z,3.98
2019-05-12T12:46:24.697Z,4.08
2019-05-12T12:49:00.163Z,3.80
2019-05-12T12:51:34.340Z,3.98
2019-05-12T12:54:08.264Z,5.08
2019-05-12T12:56:43.110Z,3.67
2019-05-12T12:59:17.109Z,3.87
2019-05-12T13:01:51.128Z,12.73
2019-05-12T13:04:24.903Z,40.03
2019-05-12T13:06:58.672Z,10.45
2019-05-12T13:09:33.514Z,15.25
2019-05-12T13:12:14.307Z,7.22
2019-05-12T13:14:44.319Z,5.50
2019-05-12T13:17:20.034Z,3.65
2019-05-12T13:19:58.553Z,5.37
2019-05-12T13:22:29.799Z,5.90
2019-05-12T13:25:08.593Z,4.85
2019-05-12T13:27:40.479Z,3.87
2019-05-12T13:30:21.144Z,4.65
2019-05-12T13:32:55.857Z,5.40
2019-05-12T13:35:43.564Z,4.78
2019-05-12T13:38:17.033Z,5.08
2019-05-12T13:40:50.535Z,5.30
2019-05-12T13:43:25.938Z,5.97
2019-05-12T13:45:59.488Z,7.37
2019-05-12T13:48:34.032Z,6.60
2019-05-12T13:51:13.195Z,6.17
2019-05-12T13:53:53.784Z,4.78
2019-05-12T13:56:32.808Z,3.95
2019-05-12T14:11:38.938Z,40.15
2019-05-12T14:30:24.387Z,5.08
2019-05-12T14:33:18.450Z,5.33
2019-05-12T15:09:36.345Z,4.92
2019-05-12T15:16:40.421Z,4.67
2019-05-12T15:23:32.336Z,4.05
2019-05-12T15:26:29.646Z,5.42
2019-05-12T15:29:56.373Z,7.70
2019-05-12T15:36:07.507Z,5.28
2019-05-12T15:38:43.715Z,7.03
2019-05-12T15:42:09.183Z,5.67
2019-05-12T15:53:35.847Z,9.28
2019-05-12T15:56:14.989Z,4.47
2019-05-12T15:58:45.551Z,5.70
2019-05-12T16:01:21.316Z,19.85
2019-05-12T16:14:25.126Z,10.48
2019-05-12T16:17:27.142Z,17.10
2019-05-12T16:20:00.712Z,17.17
2019-05-12T16:22:36.835Z,20.82
2019-05-12T16:25:10.865Z,25.02
2019-05-12T16:27:45.274Z,21.12
2019-05-12T16:30:20.272Z,23.98
2019-05-12T16:32:55.021Z,10.75
2019-05-12T16:35:31.746Z,6.12
2019-05-12T16:38:06.012Z,13.08
2019-05-12T16:40:45.566Z,11.75
2019-05-12T16:43:16.550Z,7.72
2019-05-12T16:45:50.309Z,8.65
2019-05-12T16:48:33.071Z,14.23
2019-05-12T16:51:03.163Z,11.57
2019-05-12T16:53:36.819Z,10.65
2019-05-12T16:56:10.690Z,10.20
2019-05-12T16:58:44.638Z,17.60
2019-05-12T17:01:19.381Z,14.33
2019-05-12T17:03:54.712Z,7.03
2019-05-12T17:06:33.880Z,6.17
2019-05-12T17:09:05.030Z,11.63
2019-05-12T17:11:47.309Z,7.62
2019-05-12T17:14:13.825Z,6.30
2019-05-12T17:16:48.964Z,5.35
2019-05-12T17:19:23.658Z,4.67
2019-05-12T17:21:59.403Z,5.50
2019-05-12T17:24:34.253Z,6.95
2019-05-12T17:27:09.141Z,7.53
2019-05-12T17:29:43.497Z,8.55
2019-05-12T17:32:16.806Z,9.15
2019-05-12T17:34:50.215Z,11.43
2019-05-12T17:37:23.930Z,10.10
2019-05-12T17:39:57.300Z,12.28
2019-05-12T17:42:33.290Z,11.05
2019-05-12T17:45:09.397Z,15.43
2019-05-12T17:47:41.279Z,20.95
2019-05-12T17:50:14.959Z,31.97
2019-05-12T17:52:50.362Z,49.50
2019-05-12T17:55:23.312Z,46.90
2019-05-12T17:57:57.906Z,44.90
2019-05-12T18:00:33.548Z,46.10
2019-05-12T18:03:18.143Z,35.00
2019-05-12T18:05:47.548Z,50.70
2019-05-12T18:08:17.513Z,39.13
2019-05-12T18:10:54.284Z,27.30
2019-05-12T18:13:28.178Z,20.02
2019-05-12T18:16:05.580Z,16.70
2019-05-12T18:18:43.400Z,14.18
2019-05-12T18:21:22.116Z,14.35
2019-05-12T18:23:53.664Z,17.73
2019-05-12T18:26:27.367Z,25.32
2019-05-12T18:29:03.881Z,30.70
2019-05-12T18:31:36.697Z,26.57
2019-05-12T18:34:10.422Z,24.72
2019-05-12T18:36:49.024Z,19.32
2019-05-12T18:39:19.836Z,17.50
2019-05-12T18:41:54.605Z,23.07
2019-05-12T18:44:31.734Z,32.30
2019-05-12T18:47:07.925Z,50.48
2019-05-12T18:49:47.811Z,48.52
2019-05-12T18:52:23.770Z,50.52
2019-05-12T18:54:58.006Z,63.08
2019-05-12T18:57:39.016Z,53.63
2019-05-12T19:00:19.450Z,49.45
2019-05-12T19:02:54.617Z,36.25
2019-05-12T19:05:30.967Z,29.60
2019-05-12T19:08:04.815Z,23.42
2019-05-12T19:10:45.990Z,21.62
2019-05-12T19:13:14.645Z,19.62
2019-05-12T19:15:52.616Z,19.92
2019-05-12T19:18:32.345Z,23.50
2019-05-12T19:21:01.271Z,25.95
2019-05-12T19:23:37.618Z,28.20
2019-05-12T19:26:13.549Z,30.00
2019-05-12T19:28:52.823Z,27.37
2019-05-12T19:31:24.767Z,25.90
2019-05-12T19:34:15.724Z,23.35
2019-05-12T19:36:45.012Z,20.20
2019-05-12T19:39:11.843Z,19.10
2019-05-12T19:41:46.053Z,15.58
2019-05-12T19:44:19.904Z,13.50
2019-05-12T19:46:54.632Z,12.47
2019-05-12T19:49:28.387Z,14.45
2019-05-12T19:52:03.652Z,14.33
2019-05-12T19:54:38.131Z,14.78
2019-05-12T19:57:15.599Z,16.25
2019-05-12T19:59:50.969Z,19.40
2019-05-12T20:02:23.687Z,18.25
2019-05-12T20:04:57.181Z,16.17
2019-05-12T20:07:33.726Z,20.08
2019-05-12T20:10:06.641Z,23.98
2019-05-12T20:12:40.072Z,23.60
2019-05-12T20:15:15.019Z,24.72
2019-05-12T20:17:48.921Z,24.65
2019-05-12T20:20:28.850Z,23.75
2019-05-12T20:22:57.493Z,32.13
2019-05-12T20:25:31.002Z,29.02
2019-05-12T20:28:11.020Z,38.08
2019-05-12T20:30:39.436Z,27.73
2019-05-12T20:33:13.774Z,19.30
2019-05-12T20:35:49.201Z,20.00
2019-05-12T20:38:25.486Z,17.55
2019-05-12T20:40:58.119Z,28.60
2019-05-12T20:43:37.179Z,27.70
2019-05-12T20:46:06.585Z,23.73
2019-05-12T20:48:40.019Z,25.62
2019-05-12T20:51:15.310Z,28.85
2019-05-12T20:53:48.570Z,24.27
2019-05-12T20:56:24.720Z,32.25
2019-05-12T20:58:58.315Z,32.03
2019-05-12T21:01:33.610Z,28.32
2019-05-12T21:04:07.885Z,28.40
2019-05-12T21:06:43.141Z,26.20
2019-05-12T21:09:16.672Z,22.80
2019-05-12T21:11:50.173Z,20.62
2019-05-12T21:14:24.091Z,17.57
2019-05-12T21:16:57.615Z,16.40
2019-05-12T21:19:37.946Z,15.50
2019-05-12T21:22:06.157Z,13.43
2019-05-12T21:24:39.600Z,11.80
2019-05-12T21:27:15.731Z,11.65
2019-05-12T21:29:48.166Z,11.73
2019-05-12T21:32:24.034Z,12.35
2019-05-12T21:34:57.906Z,12.03
2019-05-12T21:37:37.045Z,11.93
2019-05-12T21:40:08.637Z,12.35
2019-05-12T21:42:44.320Z,15.28
2019-05-12T21:45:23.778Z,15.63
2019-05-12T21:47:56.304Z,12.35
2019-05-12T21:50:32.693Z,10.53
2019-05-12T21:53:04.332Z,9.98
2019-05-12T21:55:37.935Z,9.55
2019-05-12T21:58:12.904Z,8.73
2019-05-12T22:00:59.564Z,9.13
2019-05-12T22:03:27.939Z,8.55
2019-05-12T22:06:06.466Z,8.85
2019-05-12T22:08:36.473Z,7.33
2019-05-12T22:11:11.750Z,6.53
2019-05-12T22:13:54.873Z,5.33
2019-05-12T22:16:20.577Z,5.87
2019-05-12T22:18:59.045Z,4.80
2019-05-12T22:21:29.450Z,4.42
2019-05-12T22:24:06.181Z,5.17
2019-05-12T22:26:40.371Z,4.53
2019-05-12T22:29:13.977Z,4.60
2019-05-12T22:31:48.298Z,4.60
2019-05-12T22:34:27.365Z,4.78
2019-05-12T22:36:59.243Z,4.17
2019-05-12T22:39:33.896Z,4.53
2019-05-12T22:42:11.629Z,3.95
2019-05-12T22:44:43.754Z,4.22
2019-05-12T22:47:17.963Z,4.55
2019-05-12T22:49:55.330Z,4.58
2019-05-12T22:52:26.577Z,4.30
2019-05-12T22:55:00.034Z,5.05
2019-05-12T22:57:38.300Z,4.90
2019-05-12T23:00:13.523Z,4.55
2019-05-12T23:02:46.596Z,4.92
2019-05-12T23:05:20.704Z,4.95
2019-05-12T23:07:54.537Z,4.67
2019-05-12T23:10:28.223Z,4.67
2019-05-12T23:13:04.746Z,3.90
2019-05-12T23:15:42.286Z,3.85
2019-05-12T23:18:12.254Z,3.98
2019-05-12T23:20:45.724Z,4.10
2019-05-12T23:23:19.160Z,3.83
2019-05-12T23:26:00.194Z,3.42
2019-05-12T23:28:27.960Z,3.27
2019-05-12T23:31:01.491Z,3.60
2019-05-12T23:33:36.605Z,2.98
2019-05-12T23:36:15.834Z,3.33
2019-05-12T23:38:51.996Z,3.12
2019-05-12T23:41:23.796Z,2.75
2019-05-12T23:43:57.326Z,2.75
2019-05-12T23:46:30.821Z,2.90
2019-05-12T23:49:04.323Z,3.60
2019-05-12T23:51:37.853Z,2.92
2019-05-12T23:54:11.293Z,3.45
2019-05-12T23:56:44.810Z,2.87
2019-05-12T23:59:18.301Z,2.80
